createdAt,value
2023-04-18T00:01:52.925Z,12.80
2023-04-18T00:04:20.416Z,12.80
2023-04-18T00:06:49.737Z,12.79
2023-04-18T00:09:16.579Z,12.78
2023-04-18T00:11:43.628Z,12.77
2023-04-18T00:14:10.527Z,12.75
2023-04-18T00:16:38.912Z,12.74
2023-04-18T00:19:06.852Z,12.72
2023-04-18T00:21:33.687Z,12.69
2023-04-18T00:24:00.627Z,12.68
2023-04-18T00:26:28.273Z,12.60
2023-04-18T00:28:56.396Z,12.55
2023-04-18T00:31:23.416Z,12.53
2023-04-18T00:33:50.931Z,12.53
2023-04-18T00:36:17.835Z,12.54
2023-04-18T00:38:45.106Z,12.54
2023-04-18T00:41:12.008Z,12.55
2023-04-18T00:43:38.825Z,12.58
2023-04-18T00:46:06.437Z,12.59
2023-04-18T00:48:34.116Z,12.61
2023-04-18T00:51:01.906Z,12.61
2023-04-18T00:53:29.520Z,12.62
2023-04-18T00:55:56.424Z,12.64
2023-04-18T00:58:24.913Z,12.67
2023-04-18T01:00:52.235Z,12.70
2023-04-18T01:03:19.186Z,12.72
2023-04-18T01:05:46.588Z,12.76
2023-04-18T01:08:14.364Z,12.78
2023-04-18T01:10:41.964Z,12.82
2023-04-18T01:13:20.472Z,12.85
2023-04-18T01:15:49.349Z,12.87
2023-04-18T01:18:17.363Z,12.88
2023-04-18T01:20:47.689Z,12.89
2023-04-18T01:23:15.844Z,12.89
2023-04-18T01:25:43.972Z,12.91
2023-04-18T01:28:12.217Z,12.94
2023-04-18T01:30:39.041Z,12.97
2023-04-18T01:33:06.673Z,12.98
2023-04-18T01:35:33.851Z,12.98
2023-04-18T01:38:01.442Z,13.00
2023-04-18T01:40:28.413Z,13.01
2023-04-18T01:42:55.349Z,13.03
2023-04-18T01:45:22.529Z,13.06
2023-04-18T01:47:49.529Z,13.07
2023-04-18T01:50:16.424Z,13.08
2023-04-18T01:52:43.283Z,13.08
2023-04-18T01:55:10.506Z,13.07
2023-04-18T01:57:38.031Z,13.07
2023-04-18T02:00:06.573Z,13.07
2023-04-18T02:02:41.525Z,13.07
2023-04-18T02:05:09.288Z,13.06
2023-04-18T02:07:38.540Z,13.06
2023-04-18T02:10:06.049Z,13.05
2023-04-18T02:12:34.301Z,13.03
2023-04-18T02:15:01.562Z,13.03
2023-04-18T02:17:28.840Z,13.05
2023-04-18T02:19:55.948Z,13.05
2023-04-18T02:22:23.065Z,13.06
2023-04-18T02:24:49.982Z,13.05
2023-04-18T02:27:16.897Z,13.04
2023-04-18T02:29:43.770Z,13.05
2023-04-18T02:32:11.080Z,13.04
2023-04-18T02:34:38.104Z,13.02
2023-04-18T02:37:05.182Z,13.00
2023-04-18T02:39:32.608Z,13.01
2023-04-18T02:41:59.517Z,13.00
2023-04-18T02:44:26.473Z,12.99
2023-04-18T02:46:53.333Z,12.99
2023-04-18T02:49:20.312Z,13.00
2023-04-18T02:51:47.456Z,13.02
2023-04-18T02:54:15.437Z,13.05
2023-04-18T02:57:04.884Z,13.06
2023-04-18T02:59:55.145Z,13.07
2023-04-18T03:02:22.144Z,13.10
2023-04-18T03:04:53.882Z,13.12
2023-04-18T03:07:20.869Z,13.14
2023-04-18T03:09:48.990Z,13.16
2023-04-18T03:12:22.976Z,13.15
2023-04-18T03:14:49.982Z,13.14
2023-04-18T03:17:17.027Z,13.16
2023-04-18T03:19:47.400Z,13.16
2023-04-18T03:22:16.503Z,13.15
2023-04-18T03:24:48.995Z,13.14
2023-04-18T03:27:16.334Z,13.12
2023-04-18T03:29:44.129Z,13.13
2023-04-18T03:32:11.480Z,13.14
2023-04-18T03:34:38.915Z,13.12
2023-04-18T03:37:07.493Z,13.13
2023-04-18T03:39:38.194Z,13.11
2023-04-18T03:42:05.508Z,13.10
2023-04-18T03:44:33.296Z,13.11
2023-04-18T03:47:00.608Z,13.12
2023-04-18T03:49:28.189Z,13.12
2023-04-18T03:51:55.184Z,13.14
2023-04-18T03:54:22.062Z,13.15
2023-04-18T03:56:49.424Z,13.16
2023-04-18T03:59:16.389Z,13.16
2023-04-18T04:01:45.998Z,13.14
2023-04-18T04:04:15.668Z,13.13
2023-04-18T04:06:43.364Z,13.11
2023-04-18T04:09:10.583Z,13.10
2023-04-18T04:11:38.491Z,13.08
2023-04-18T04:14:06.806Z,13.04
2023-04-18T04:16:38.367Z,12.99
2023-04-18T04:19:05.921Z,12.93
2023-04-18T04:21:37.616Z,12.88
2023-04-18T04:24:05.268Z,12.85
2023-04-18T04:26:37.092Z,12.81
2023-04-18T04:29:11.220Z,12.78
2023-04-18T04:31:38.668Z,12.74
2023-04-18T04:34:06.311Z,12.71
2023-04-18T04:36:33.583Z,12.69
2023-04-18T04:39:04.286Z,12.68
2023-04-18T04:41:43.503Z,12.67
2023-04-18T04:44:11.040Z,12.66
2023-04-18T04:46:40.454Z,12.67
2023-04-18T04:49:12.361Z,12.68
2023-04-18T04:51:40.266Z,12.70
2023-04-18T04:54:07.185Z,12.73
2023-04-18T04:56:34.092Z,12.76
2023-04-18T04:59:01.993Z,12.78
2023-04-18T05:01:34.055Z,12.81
2023-04-18T05:04:01.208Z,12.84
2023-04-18T05:06:28.341Z,12.87
2023-04-18T05:08:56.961Z,12.90
2023-04-18T05:11:23.943Z,12.95
2023-04-18T05:13:50.751Z,13.00
2023-04-18T05:16:18.086Z,13.04
2023-04-18T05:18:44.944Z,13.08
2023-04-18T05:21:11.754Z,13.10
2023-04-18T05:23:38.579Z,13.13
2023-04-18T05:26:06.308Z,13.14
2023-04-18T05:28:33.222Z,13.19
2023-04-18T05:31:03.011Z,13.23
2023-04-18T05:33:31.734Z,13.29
2023-04-18T05:35:59.300Z,13.33
2023-04-18T05:38:26.369Z,13.39
2023-04-18T05:40:55.949Z,13.47
2023-04-18T05:43:23.591Z,13.55
2023-04-18T05:45:52.395Z,13.63
2023-04-18T05:48:19.567Z,13.70
2023-04-18T05:50:46.379Z,13.80
2023-04-18T05:53:13.349Z,13.90
2023-04-18T05:55:41.137Z,14.00
2023-04-18T05:58:08.115Z,14.11
2023-04-18T06:00:35.161Z,14.25
2023-04-18T06:03:02.286Z,14.40
2023-04-18T06:05:29.855Z,14.56
2023-04-18T06:07:57.981Z,14.74
2023-04-18T06:10:24.806Z,14.94
2023-04-18T06:12:51.745Z,15.12
2023-04-18T06:15:18.667Z,15.34
2023-04-18T06:17:45.842Z,15.56
2023-04-18T06:20:12.954Z,15.75
2023-04-18T06:22:39.907Z,15.96
2023-04-18T06:25:09.058Z,16.18
2023-04-18T06:27:37.553Z,16.35
2023-04-18T06:30:05.981Z,16.48
2023-04-18T06:32:32.918Z,16.56
2023-04-18T06:34:59.838Z,16.67
2023-04-18T06:37:26.863Z,16.79
2023-04-18T06:39:53.823Z,16.91
2023-04-18T06:42:22.366Z,17.00
2023-04-18T06:44:50.088Z,17.19
2023-04-18T06:47:17.052Z,17.41
2023-04-18T06:49:43.896Z,17.57
2023-04-18T06:52:11.152Z,17.74
2023-04-18T06:54:38.063Z,17.85
2023-04-18T06:57:05.081Z,17.92
2023-04-18T06:59:31.912Z,18.02
2023-04-18T07:01:58.742Z,18.18
2023-04-18T07:04:26.298Z,18.34
2023-04-18T07:06:53.267Z,18.52
2023-04-18T07:09:20.752Z,18.70
2023-04-18T07:11:47.551Z,18.87
2023-04-18T07:14:14.724Z,19.03
2023-04-18T07:16:41.915Z,19.18
2023-04-18T07:19:08.938Z,19.31
2023-04-18T07:21:37.864Z,19.43
2023-04-18T07:24:04.899Z,19.54
2023-04-18T07:26:31.857Z,19.62
2023-04-18T07:28:58.676Z,19.71
2023-04-18T07:31:25.989Z,19.79
2023-04-18T07:33:52.865Z,19.88
2023-04-18T07:36:19.628Z,19.94
2023-04-18T07:38:46.912Z,20.04
2023-04-18T07:41:13.790Z,20.15
2023-04-18T07:43:40.713Z,20.27
2023-04-18T07:46:08.194Z,20.39
2023-04-18T07:48:35.181Z,20.49
2023-04-18T07:51:02.892Z,20.57
2023-04-18T07:53:29.854Z,20.61
2023-04-18T07:55:56.773Z,20.66
2023-04-18T07:58:23.582Z,20.71
2023-04-18T08:00:50.360Z,20.78
2023-04-18T08:03:17.326Z,20.87
2023-04-18T08:05:44.293Z,20.96
2023-04-18T08:08:12.140Z,21.06
2023-04-18T08:10:39.192Z,21.17
2023-04-18T08:13:06.966Z,21.24
2023-04-18T08:15:33.941Z,21.25
2023-04-18T08:18:02.235Z,21.30
2023-04-18T08:20:29.505Z,21.29
2023-04-18T08:23:06.946Z,21.26
2023-04-18T08:25:36.589Z,21.26
2023-04-18T08:28:04.244Z,21.17
2023-04-18T08:30:31.634Z,21.04
2023-04-18T08:33:02.140Z,20.96
2023-04-18T08:35:29.156Z,20.96
2023-04-18T08:37:55.991Z,21.07
2023-04-18T08:40:23.002Z,21.21
2023-04-18T08:42:53.063Z,21.41
2023-04-18T08:45:20.109Z,21.61
2023-04-18T08:47:47.125Z,21.77
2023-04-18T08:50:14.000Z,21.91
2023-04-18T08:52:48.216Z,22.05
2023-04-18T08:55:16.316Z,22.17
2023-04-18T08:57:43.996Z,22.31
2023-04-18T09:00:11.835Z,22.45
2023-04-18T09:02:43.842Z,22.61
2023-04-18T09:05:21.674Z,22.77
2023-04-18T09:07:50.877Z,22.90
2023-04-18T09:10:33.037Z,23.03
2023-04-18T09:13:05.659Z,23.08
2023-04-18T09:15:32.550Z,23.12
2023-04-18T09:18:03.257Z,23.16
2023-04-18T09:20:41.459Z,23.21
2023-04-18T09:23:16.368Z,23.31
2023-04-18T09:25:48.207Z,23.35
2023-04-18T09:28:24.042Z,23.35
2023-04-18T09:30:52.824Z,23.42
2023-04-18T09:33:33.629Z,23.50
2023-04-18T09:36:18.901Z,23.62
2023-04-18T09:38:46.377Z,23.69
2023-04-18T09:41:16.569Z,23.71
2023-04-18T09:43:46.610Z,23.80
2023-04-18T09:46:14.456Z,23.87
2023-04-18T09:48:42.028Z,23.87
2023-04-18T09:51:16.055Z,23.87
2023-04-18T09:53:45.102Z,23.85
2023-04-18T09:56:28.022Z,23.82
2023-04-18T09:59:08.772Z,23.85
2023-04-18T10:01:36.703Z,23.79
2023-04-18T10:04:06.885Z,23.66
2023-04-18T10:06:38.527Z,23.67
2023-04-18T10:09:06.104Z,23.76
2023-04-18T10:11:33.448Z,23.87
2023-04-18T10:14:09.897Z,23.98
2023-04-18T10:16:38.855Z,24.21
2023-04-18T10:19:21.136Z,24.42
2023-04-18T10:21:56.491Z,24.66
2023-04-18T10:24:48.522Z,24.82
2023-04-18T10:27:19.099Z,24.99
2023-04-18T10:29:50.830Z,25.05
2023-04-18T10:32:23.708Z,24.98
2023-04-18T10:34:53.553Z,25.00
2023-04-18T10:37:20.465Z,24.98
2023-04-18T10:40:07.630Z,25.00
2023-04-18T10:42:46.665Z,25.04
2023-04-18T10:45:20.490Z,25.11
2023-04-18T10:47:47.426Z,25.19
2023-04-18T10:50:15.639Z,25.23
2023-04-18T10:52:42.761Z,25.27
2023-04-18T10:55:11.655Z,25.35
2023-04-18T10:57:49.491Z,25.44
2023-04-18T11:00:19.037Z,25.44
2023-04-18T11:02:52.025Z,25.46
2023-04-18T11:05:21.413Z,25.51
2023-04-18T11:07:51.325Z,25.57
2023-04-18T11:10:24.586Z,25.63
2023-04-18T11:12:53.258Z,25.65
2023-04-18T11:15:24.674Z,25.70
2023-04-18T11:18:03.916Z,25.73
2023-04-18T11:20:46.119Z,25.78
2023-04-18T11:23:30.803Z,25.85
2023-04-18T11:25:58.418Z,25.94
2023-04-18T11:28:25.432Z,26.05
2023-04-18T11:30:52.296Z,26.16
2023-04-18T11:33:19.181Z,26.18
2023-04-18T11:35:46.895Z,26.09
2023-04-18T11:38:15.206Z,26.00
2023-04-18T11:40:49.644Z,25.94
2023-04-18T11:43:24.689Z,25.99
2023-04-18T11:45:59.405Z,26.04
2023-04-18T11:48:37.052Z,26.07
2023-04-18T11:51:06.007Z,26.05
2023-04-18T11:53:37.131Z,26.08
2023-04-18T11:56:05.671Z,26.17
2023-04-18T11:58:34.144Z,26.25
2023-04-18T12:01:22.001Z,26.28
2023-04-18T12:04:09.279Z,26.28
2023-04-18T12:06:49.986Z,26.32
2023-04-18T12:09:17.714Z,26.32
2023-04-18T12:11:56.264Z,26.33
2023-04-18T12:14:23.202Z,26.39
2023-04-18T12:16:50.824Z,26.48
2023-04-18T12:19:20.811Z,26.56
2023-04-18T12:22:02.145Z,26.61
2023-04-18T12:24:29.070Z,26.56
2023-04-18T12:26:57.760Z,26.54
2023-04-18T12:29:25.723Z,26.53
2023-04-18T12:31:52.998Z,26.57
2023-04-18T12:34:20.500Z,26.60
2023-04-18T12:36:47.451Z,26.61
2023-04-18T12:39:14.419Z,26.60
2023-04-18T12:41:41.319Z,26.60
2023-04-18T12:44:09.403Z,26.60
2023-04-18T12:46:37.080Z,26.59
2023-04-18T12:49:04.029Z,26.58
2023-04-18T12:51:31.568Z,26.57
2023-04-18T12:53:58.476Z,26.55
2023-04-18T12:56:25.683Z,26.57
2023-04-18T12:58:52.560Z,26.53
2023-04-18T13:01:19.950Z,26.46
2023-04-18T13:03:56.397Z,26.44
2023-04-18T13:06:27.468Z,26.38
2023-04-18T13:08:54.393Z,26.35
2023-04-18T13:11:22.631Z,26.29
2023-04-18T13:13:49.688Z,26.21
2023-04-18T13:16:16.697Z,26.14
2023-04-18T13:18:46.351Z,26.07
2023-04-18T13:21:14.753Z,25.89
2023-04-18T13:23:41.468Z,25.64
2023-04-18T13:26:08.889Z,25.33
2023-04-18T13:28:35.567Z,25.08
2023-04-18T13:31:02.178Z,24.82
2023-04-18T13:33:28.832Z,24.55
2023-04-18T13:35:56.045Z,24.26
2023-04-18T13:38:23.501Z,24.03
2023-04-18T13:40:55.841Z,23.88
2023-04-18T13:43:31.626Z,23.79
2023-04-18T13:45:58.407Z,23.80
2023-04-18T13:48:25.082Z,23.86
2023-04-18T13:50:51.745Z,23.84
2023-04-18T13:53:18.864Z,23.89
2023-04-18T13:55:46.098Z,23.96
2023-04-18T13:58:12.965Z,24.02
2023-04-18T14:00:39.917Z,24.13
2023-04-18T14:03:06.958Z,24.28
2023-04-18T14:05:34.172Z,24.39
2023-04-18T14:08:04.081Z,24.50
2023-04-18T14:10:31.425Z,24.57
2023-04-18T14:13:04.135Z,24.63
2023-04-18T14:15:33.291Z,24.62
2023-04-18T14:18:01.063Z,24.61
2023-04-18T14:20:34.378Z,24.59
2023-04-18T14:23:02.080Z,24.54
2023-04-18T14:25:30.066Z,24.57
2023-04-18T14:28:11.977Z,24.61
2023-04-18T14:30:40.521Z,24.60
2023-04-18T14:33:09.720Z,24.55
2023-04-18T14:35:36.537Z,24.54
2023-04-18T14:38:03.170Z,24.56
2023-04-18T14:40:32.528Z,24.60
2023-04-18T14:42:59.710Z,24.62
2023-04-18T14:45:26.365Z,24.63
2023-04-18T14:47:53.751Z,24.63
2023-04-18T14:50:20.748Z,24.60
2023-04-18T14:52:47.524Z,24.55
2023-04-18T14:55:14.285Z,24.52
2023-04-18T14:57:41.037Z,24.45
2023-04-18T15:00:10.871Z,24.39
2023-04-18T15:02:37.905Z,24.31
2023-04-18T15:05:05.300Z,24.23
2023-04-18T15:07:32.114Z,24.17
2023-04-18T15:09:58.778Z,24.15
2023-04-18T15:12:26.583Z,24.13
2023-04-18T15:14:53.933Z,24.11
2023-04-18T15:17:20.898Z,24.02
2023-04-18T15:19:47.627Z,23.92
2023-04-18T15:22:14.419Z,23.85
2023-04-18T15:24:41.474Z,23.78
2023-04-18T15:27:08.321Z,23.72
2023-04-18T15:29:35.010Z,23.66
2023-04-18T15:32:01.703Z,23.59
2023-04-18T15:34:28.568Z,23.52
2023-04-18T15:36:55.252Z,23.44
2023-04-18T15:39:23.674Z,23.33
2023-04-18T15:41:54.685Z,23.24
2023-04-18T15:44:22.275Z,23.12
2023-04-18T15:46:49.437Z,23.03
2023-04-18T15:49:16.240Z,22.96
2023-04-18T15:51:42.939Z,22.88
2023-04-18T15:54:09.557Z,22.81
2023-04-18T15:56:36.991Z,22.75
2023-04-18T15:59:05.925Z,22.68
2023-04-18T16:01:33.445Z,22.60
2023-04-18T16:04:00.331Z,22.53
2023-04-18T16:06:27.453Z,22.45
2023-04-18T16:08:54.365Z,22.36
2023-04-18T16:11:21.958Z,22.29
2023-04-18T16:13:48.661Z,22.24
2023-04-18T16:16:15.377Z,22.21
2023-04-18T16:18:42.050Z,22.17
2023-04-18T16:21:08.811Z,22.15
2023-04-18T16:23:35.777Z,22.11
2023-04-18T16:26:02.408Z,22.09
2023-04-18T16:28:30.123Z,22.06
2023-04-18T16:30:56.798Z,22.02
2023-04-18T16:33:26.151Z,21.99
2023-04-18T16:35:53.191Z,21.93
2023-04-18T16:38:23.543Z,21.91
2023-04-18T16:40:50.202Z,21.88
2023-04-18T16:43:16.994Z,21.85
2023-04-18T16:45:43.719Z,21.80
2023-04-18T16:48:10.445Z,21.76
2023-04-18T16:50:37.168Z,21.71
2023-04-18T16:53:03.963Z,21.66
2023-04-18T16:55:30.623Z,21.60
2023-04-18T16:57:57.333Z,21.55
2023-04-18T17:00:24.295Z,21.50
2023-04-18T17:02:51.050Z,21.45
2023-04-18T17:05:18.856Z,21.41
2023-04-18T17:07:46.166Z,21.37
2023-04-18T17:10:12.938Z,21.32
2023-04-18T17:12:39.859Z,21.29
2023-04-18T17:15:07.078Z,21.26
2023-04-18T17:17:34.955Z,21.22
2023-04-18T17:20:01.787Z,21.17
2023-04-18T17:22:29.604Z,21.12
2023-04-18T17:24:56.333Z,21.07
2023-04-18T17:27:23.150Z,21.01
2023-04-18T17:29:50.148Z,20.96
2023-04-18T17:32:18.113Z,20.91
2023-04-18T17:34:45.614Z,20.87
2023-04-18T17:37:12.524Z,20.82
2023-04-18T17:39:40.698Z,20.77
2023-04-18T17:42:07.309Z,20.72
2023-04-18T17:44:34.023Z,20.67
2023-04-18T17:47:02.142Z,20.62
2023-04-18T17:49:34.519Z,20.56
2023-04-18T17:52:01.890Z,20.50
2023-04-18T17:54:28.778Z,20.42
2023-04-18T17:56:55.977Z,20.36
2023-04-18T17:59:22.625Z,20.28
2023-04-18T18:01:49.370Z,20.22
2023-04-18T18:04:16.388Z,20.16
2023-04-18T18:06:53.798Z,20.11
2023-04-18T18:09:20.654Z,20.05
2023-04-18T18:11:47.328Z,20.00
2023-04-18T18:14:14.031Z,19.94
2023-04-18T18:16:40.910Z,19.89
2023-04-18T18:19:07.580Z,19.83
2023-04-18T18:21:34.221Z,19.76
2023-04-18T18:24:00.912Z,19.68
2023-04-18T18:26:27.623Z,19.58
2023-04-18T18:28:54.515Z,19.49
2023-04-18T18:31:24.971Z,19.41
2023-04-18T18:33:52.217Z,19.33
2023-04-18T18:36:18.891Z,19.26
2023-04-18T18:38:45.650Z,19.21
2023-04-18T18:41:12.397Z,19.13
2023-04-18T18:43:39.139Z,19.07
2023-04-18T18:46:05.923Z,19.00
2023-04-18T18:48:32.914Z,18.92
2023-04-18T18:50:59.523Z,18.84
2023-04-18T18:53:26.167Z,18.75
2023-04-18T18:55:52.826Z,18.65
2023-04-18T18:58:19.591Z,18.57
2023-04-18T19:00:47.064Z,18.50
2023-04-18T19:03:14.350Z,18.44
2023-04-18T19:05:41.276Z,18.35
2023-04-18T19:08:09.387Z,18.27
2023-04-18T19:10:36.292Z,18.17
2023-04-18T19:13:03.490Z,18.06
2023-04-18T19:15:30.183Z,17.92
2023-04-18T19:17:57.062Z,17.83
2023-04-18T19:20:24.148Z,17.80
2023-04-18T19:22:51.063Z,17.76
2023-04-18T19:25:17.832Z,17.74
2023-04-18T19:27:44.555Z,17.72
2023-04-18T19:30:12.039Z,17.69
2023-04-18T19:32:38.867Z,17.65
2023-04-18T19:35:06.937Z,17.62
2023-04-18T19:37:33.693Z,17.58
2023-04-18T19:40:00.749Z,17.56
2023-04-18T19:42:27.407Z,17.54
2023-04-18T19:44:54.029Z,17.53
2023-04-18T19:47:20.851Z,17.50
2023-04-18T19:49:47.550Z,17.46
2023-04-18T19:52:14.345Z,17.41
2023-04-18T19:54:41.364Z,17.36
2023-04-18T19:57:08.050Z,17.31
2023-04-18T19:59:34.728Z,17.26
2023-04-18T20:02:04.317Z,17.22
2023-04-18T20:04:34.297Z,17.17
2023-04-18T20:07:01.532Z,17.13
2023-04-18T20:09:28.580Z,17.08
2023-04-18T20:11:55.514Z,17.03
2023-04-18T20:14:22.205Z,17.01
2023-04-18T20:16:49.846Z,16.99
2023-04-18T20:19:17.839Z,16.98
2023-04-18T20:21:44.828Z,16.98
2023-04-18T20:24:11.577Z,16.97
2023-04-18T20:26:38.208Z,16.95
2023-04-18T20:29:04.963Z,16.92
2023-04-18T20:31:31.631Z,16.88
2023-04-18T20:33:58.360Z,16.86
2023-04-18T20:36:25.166Z,16.84
2023-04-18T20:38:51.980Z,16.82
2023-04-18T20:41:20.898Z,16.79
2023-04-18T20:43:47.690Z,16.78
2023-04-18T20:46:14.517Z,16.77
2023-04-18T20:48:41.328Z,16.77
2023-04-18T20:51:07.990Z,16.74
2023-04-18T20:53:34.672Z,16.73
2023-04-18T20:56:03.115Z,16.72
2023-04-18T20:58:30.334Z,16.71
2023-04-18T21:00:56.977Z,16.68
2023-04-18T21:03:23.764Z,16.65
2023-04-18T21:05:50.686Z,16.62
2023-04-18T21:08:17.360Z,16.58
2023-04-18T21:10:43.960Z,16.57
2023-04-18T21:13:12.650Z,16.54
2023-04-18T21:15:41.980Z,16.52
2023-04-18T21:18:09.132Z,16.50
2023-04-18T21:20:37.682Z,16.47
2023-04-18T21:23:05.678Z,16.45
2023-04-18T21:25:33.068Z,16.45
2023-04-18T21:28:00.339Z,16.44
2023-04-18T21:30:27.017Z,16.40
2023-04-18T21:32:53.727Z,16.34
2023-04-18T21:35:23.401Z,16.31
2023-04-18T21:37:51.510Z,16.23
2023-04-18T21:40:18.300Z,16.17
2023-04-18T21:42:44.943Z,16.14
2023-04-18T21:45:11.909Z,16.07
2023-04-18T21:47:38.650Z,15.98
2023-04-18T21:50:06.120Z,15.91
2023-04-18T21:52:32.736Z,15.88
2023-04-18T21:54:59.557Z,15.82
2023-04-18T21:57:26.849Z,15.76
2023-04-18T21:59:54.723Z,15.71
2023-04-18T22:02:21.945Z,15.67
2023-04-18T22:04:49.106Z,15.64
2023-04-18T22:07:15.917Z,15.60
2023-04-18T22:09:43.644Z,15.55
2023-04-18T22:12:11.575Z,15.52
2023-04-18T22:14:38.228Z,15.48
2023-04-18T22:17:05.026Z,15.46
2023-04-18T22:19:31.733Z,15.47
2023-04-18T22:21:59.013Z,15.44
2023-04-18T22:24:26.090Z,15.41
2023-04-18T22:26:53.196Z,15.40
2023-04-18T22:29:19.807Z,15.40
2023-04-18T22:31:46.399Z,15.40
2023-04-18T22:34:13.149Z,15.40
2023-04-18T22:36:40.022Z,15.37
2023-04-18T22:39:07.478Z,15.36
2023-04-18T22:41:34.155Z,15.34
2023-04-18T22:44:00.799Z,15.32
2023-04-18T22:46:28.247Z,15.28
2023-04-18T22:48:55.359Z,15.26
2023-04-18T22:51:23.540Z,15.25
2023-04-18T22:53:50.355Z,15.26
2023-04-18T22:56:17.201Z,15.26
2023-04-18T22:58:43.917Z,15.24
2023-04-18T23:01:10.861Z,15.21
2023-04-18T23:03:37.702Z,15.19
2023-04-18T23:06:07.528Z,15.19
2023-04-18T23:08:34.377Z,15.15
2023-04-18T23:11:01.047Z,15.09
2023-04-18T23:13:27.627Z,15.05
2023-04-18T23:15:54.370Z,15.04
2023-04-18T23:18:20.972Z,15.04
2023-04-18T23:20:47.564Z,15.05
2023-04-18T23:23:14.219Z,15.05
2023-04-18T23:25:41.003Z,15.03
2023-04-18T23:28:08.008Z,15.00
2023-04-18T23:30:36.926Z,14.98
2023-04-18T23:33:03.756Z,14.96
2023-04-18T23:35:30.700Z,14.97
2023-04-18T23:37:57.497Z,14.97
2023-04-18T23:40:24.397Z,14.93
2023-04-18T23:42:51.146Z,14.90
2023-04-18T23:45:17.942Z,14.91
2023-04-18T23:47:44.567Z,14.92
2023-04-18T23:50:12.132Z,14.92
2023-04-18T23:52:38.785Z,14.91
2023-04-18T23:55:05.891Z,14.91
2023-04-18T23:57:32.573Z,14.91
2023-04-18T23:59:59.182Z,14.92
